RPC9307 RPVA-RPVM
Flight info
| Callsign | RPC9307 |
|---|---|
| Flight time | 0h 54m |
| Altitude | 10000 |
| Route | POXOS DCT KAWIT |
| Aircraft | B58T/L-SDFGRY/C |
Departure
| Time | 2026-04-30 06:05 |
|---|---|
| Airport | Daniel Z. Romualdez Airport (RPVA) |
Arrival
| Time | 2026-04-30 06:59 |
|---|---|
| Airport | Mactan Cebu International Airport (RPVM) |
| Time | Latitude | Longitude | Altitude | Speed | Heading |
|---|---|---|---|---|---|
| 2026-04-30 05:53 | 11.22733 | 125.02654 | 13 ft | 0 kts | 308° |
| 2026-04-30 06:02 | 11.22735 | 125.02653 | 16 ft | 0 kts | 327° |
| 2026-04-30 06:02 | 11.22742 | 125.02668 | 13 ft | 5 kts | 100° |
| 2026-04-30 06:02 | 11.22754 | 125.02722 | 10 ft | 14 kts | 64° |
| 2026-04-30 06:02 | 11.22704 | 125.02773 | 10 ft | 19 kts | 180° |
| 2026-04-30 06:03 | 11.22539 | 125.02761 | 12 ft | 29 kts | 183° |
| 2026-04-30 06:03 | 11.22316 | 125.02747 | 11 ft | 35 kts | 182° |
| 2026-04-30 06:03 | 11.22087 | 125.02747 | 13 ft | 24 kts | 180° |
| 2026-04-30 06:03 | 11.22050 | 125.02732 | 12 ft | 6 kts | 343° |
| 2026-04-30 06:04 | 11.22251 | 125.02741 | 12 ft | 64 kts | 4° |
| 2026-04-30 06:04 | 11.22916 | 125.02783 | 43 ft | 118 kts | 3° |
| 2026-04-30 06:04 | 11.23793 | 125.02823 | 240 ft | 134 kts | 5° |
| 2026-04-30 06:05 | 11.25742 | 125.02874 | 783 ft | 142 kts | 359° |
| 2026-04-30 06:05 | 11.26738 | 125.02824 | 1064 ft | 142 kts | 1° |
| 2026-04-30 06:05 | 11.27708 | 125.02730 | 1420 ft | 139 kts | 0° |
| 2026-04-30 06:05 | 11.28676 | 125.02623 | 1822 ft | 140 kts | 360° |
| 2026-04-30 06:06 | 11.29617 | 125.02701 | 2244 ft | 134 kts | 22° |
| 2026-04-30 06:06 | 11.30479 | 125.03077 | 2541 ft | 135 kts | 36° |
| 2026-04-30 06:06 | 11.31200 | 125.03684 | 2823 ft | 132 kts | 53° |
| 2026-04-30 06:06 | 11.31608 | 125.04508 | 3077 ft | 135 kts | 78° |
| 2026-04-30 06:07 | 11.31540 | 125.05479 | 3284 ft | 140 kts | 108° |
| 2026-04-30 06:07 | 11.30928 | 125.06236 | 3573 ft | 144 kts | 143° |
| 2026-04-30 06:07 | 11.29951 | 125.06549 | 3828 ft | 152 kts | 169° |
| 2026-04-30 06:07 | 11.28896 | 125.06565 | 4178 ft | 150 kts | 175° |
| 2026-04-30 06:08 | 11.27861 | 125.06569 | 4437 ft | 153 kts | 172° |
| 2026-04-30 06:08 | 11.26780 | 125.06502 | 4679 ft | 160 kts | 191° |
| 2026-04-30 06:08 | 11.25827 | 125.05886 | 4880 ft | 169 kts | 225° |
| 2026-04-30 06:08 | 11.25119 | 125.04951 | 5257 ft | 162 kts | 233° |
| 2026-04-30 06:09 | 11.24504 | 125.03992 | 5557 ft | 164 kts | 234° |
| 2026-04-30 06:09 | 11.23846 | 125.03015 | 5763 ft | 168 kts | 229° |
| 2026-04-30 06:09 | 11.23122 | 125.02105 | 6140 ft | 162 kts | 226° |
| 2026-04-30 06:09 | 11.22385 | 125.01224 | 6372 ft | 167 kts | 228° |
| 2026-04-30 06:10 | 11.21654 | 125.00283 | 6616 ft | 168 kts | 229° |
| 2026-04-30 06:10 | 11.20942 | 124.99382 | 6946 ft | 165 kts | 227° |
| 2026-04-30 06:10 | 11.20207 | 124.98453 | 7185 ft | 171 kts | 227° |
| 2026-04-30 06:10 | 11.19435 | 124.97554 | 7527 ft | 165 kts | 221° |
| 2026-04-30 06:11 | 11.18586 | 124.96736 | 7725 ft | 171 kts | 218° |
| 2026-04-30 06:11 | 11.17731 | 124.95897 | 8021 ft | 170 kts | 222° |
| 2026-04-30 06:11 | 11.16872 | 124.94980 | 8042 ft | 187 kts | 224° |
| 2026-04-30 06:11 | 11.16004 | 124.93933 | 8062 ft | 198 kts | 228° |
| 2026-04-30 06:12 | 11.15149 | 124.92805 | 8103 ft | 204 kts | 230° |
| 2026-04-30 06:12 | 11.14296 | 124.91642 | 8117 ft | 209 kts | 230° |
| 2026-04-30 06:12 | 11.13255 | 124.90602 | 8018 ft | 214 kts | 210° |
| 2026-04-30 06:12 | 11.12106 | 124.89611 | 7975 ft | 217 kts | 224° |
| 2026-04-30 06:13 | 11.11120 | 124.88463 | 7971 ft | 213 kts | 226° |
| 2026-04-30 06:13 | 11.10152 | 124.87332 | 7971 ft | 210 kts | 226° |
| 2026-04-30 06:13 | 11.09208 | 124.86229 | 7967 ft | 208 kts | 226° |
| 2026-04-30 06:13 | 11.08260 | 124.85120 | 7964 ft | 208 kts | 226° |
| 2026-04-30 06:14 | 11.07314 | 124.84013 | 7955 ft | 207 kts | 226° |
| 2026-04-30 06:14 | 11.06368 | 124.82906 | 7952 ft | 207 kts | 225° |
| 2026-04-30 06:14 | 11.05422 | 124.81801 | 7955 ft | 207 kts | 226° |
| 2026-04-30 06:14 | 11.04477 | 124.80696 | 7953 ft | 206 kts | 225° |
| 2026-04-30 06:15 | 11.03352 | 124.79880 | 7953 ft | 196 kts | 191° |
| 2026-04-30 06:15 | 11.02028 | 124.79683 | 7968 ft | 194 kts | 187° |
| 2026-04-30 06:15 | 11.00738 | 124.79236 | 7975 ft | 198 kts | 200° |
| 2026-04-30 06:15 | 10.99553 | 124.78501 | 7974 ft | 202 kts | 217° |
| 2026-04-30 06:16 | 10.98570 | 124.77461 | 7971 ft | 204 kts | 226° |
| 2026-04-30 06:16 | 10.97627 | 124.76359 | 7972 ft | 210 kts | 226° |
| 2026-04-30 06:16 | 10.96665 | 124.75234 | 7973 ft | 211 kts | 226° |
| 2026-04-30 06:16 | 10.95688 | 124.74088 | 7975 ft | 218 kts | 226° |
| 2026-04-30 06:17 | 10.94694 | 124.72923 | 7988 ft | 217 kts | 226° |
| 2026-04-30 06:17 | 10.93705 | 124.71762 | 7958 ft | 212 kts | 226° |
| 2026-04-30 06:17 | 10.92750 | 124.70639 | 7958 ft | 209 kts | 226° |
| 2026-04-30 06:17 | 10.91799 | 124.69526 | 7955 ft | 207 kts | 226° |
| 2026-04-30 06:18 | 10.90857 | 124.68424 | 7952 ft | 206 kts | 226° |
| 2026-04-30 06:18 | 10.89928 | 124.67336 | 7952 ft | 206 kts | 226° |
| 2026-04-30 06:18 | 10.88990 | 124.66236 | 7952 ft | 206 kts | 226° |
| 2026-04-30 06:18 | 10.88047 | 124.65131 | 7953 ft | 207 kts | 226° |
| 2026-04-30 06:19 | 10.87105 | 124.64027 | 7948 ft | 206 kts | 226° |
| 2026-04-30 06:19 | 10.86158 | 124.62917 | 7948 ft | 204 kts | 226° |
| 2026-04-30 06:19 | 10.85229 | 124.61830 | 7950 ft | 203 kts | 226° |
| 2026-04-30 06:19 | 10.84302 | 124.60744 | 7949 ft | 203 kts | 226° |
| 2026-04-30 06:20 | 10.83389 | 124.59674 | 7946 ft | 203 kts | 226° |
| 2026-04-30 06:20 | 10.82465 | 124.58592 | 7945 ft | 202 kts | 226° |
| 2026-04-30 06:20 | 10.81840 | 124.57860 | 7946 ft | 202 kts | 226° |
| 2026-04-30 06:20 | 10.80619 | 124.56431 | 7950 ft | 203 kts | 226° |
| 2026-04-30 06:21 | 10.79688 | 124.55340 | 7953 ft | 205 kts | 226° |
| 2026-04-30 06:21 | 10.78751 | 124.54242 | 7948 ft | 205 kts | 226° |
| 2026-04-30 06:21 | 10.77818 | 124.53150 | 7948 ft | 204 kts | 226° |
| 2026-04-30 06:21 | 10.76891 | 124.52063 | 7943 ft | 202 kts | 226° |
| 2026-04-30 06:22 | 10.75969 | 124.50985 | 7946 ft | 202 kts | 226° |
| 2026-04-30 06:22 | 10.75048 | 124.49908 | 7943 ft | 202 kts | 225° |
| 2026-04-30 06:22 | 10.74127 | 124.48829 | 7941 ft | 202 kts | 226° |
| 2026-04-30 06:22 | 10.73204 | 124.47748 | 7941 ft | 203 kts | 226° |
| 2026-04-30 06:23 | 10.72292 | 124.46681 | 7941 ft | 203 kts | 226° |
| 2026-04-30 06:23 | 10.71367 | 124.45599 | 7943 ft | 203 kts | 226° |
| 2026-04-30 06:23 | 10.70438 | 124.44512 | 7947 ft | 204 kts | 226° |
| 2026-04-30 06:23 | 10.69509 | 124.43424 | 7945 ft | 204 kts | 226° |
| 2026-04-30 06:24 | 10.68577 | 124.42334 | 7944 ft | 204 kts | 226° |
| 2026-04-30 06:24 | 10.67645 | 124.41242 | 7944 ft | 204 kts | 226° |
| 2026-04-30 06:24 | 10.66712 | 124.40151 | 7943 ft | 204 kts | 226° |
| 2026-04-30 06:24 | 10.65782 | 124.39064 | 7946 ft | 204 kts | 226° |
| 2026-04-30 06:25 | 10.64852 | 124.37975 | 7946 ft | 204 kts | 226° |
| 2026-04-30 06:25 | 10.63925 | 124.36905 | 7946 ft | 204 kts | 224° |
| 2026-04-30 06:25 | 10.62974 | 124.35835 | 7947 ft | 204 kts | 224° |
| 2026-04-30 06:25 | 10.61806 | 124.35189 | 7945 ft | 189 kts | 173° |
| 2026-04-30 06:26 | 10.60730 | 124.35774 | 7943 ft | 183 kts | 169° |
| 2026-04-30 06:26 | 10.59728 | 124.35038 | 7963 ft | 199 kts | 249° |
| 2026-04-30 06:26 | 10.59662 | 124.33633 | 7958 ft | 201 kts | 269° |
| 2026-04-30 06:26 | 10.59418 | 124.32228 | 7958 ft | 203 kts | 251° |
| 2026-04-30 06:27 | 10.58800 | 124.30946 | 7958 ft | 202 kts | 231° |
| 2026-04-30 06:27 | 10.57919 | 124.29864 | 7962 ft | 201 kts | 226° |
| 2026-04-30 06:27 | 10.57000 | 124.28787 | 7956 ft | 202 kts | 226° |
| 2026-04-30 06:27 | 10.56089 | 124.27725 | 7904 ft | 198 kts | 225° |
| 2026-04-30 06:28 | 10.55176 | 124.26661 | 7724 ft | 200 kts | 226° |
| 2026-04-30 06:28 | 10.54265 | 124.25596 | 7590 ft | 199 kts | 226° |
| 2026-04-30 06:28 | 10.53356 | 124.24533 | 7454 ft | 199 kts | 226° |
| 2026-04-30 06:28 | 10.52450 | 124.23474 | 7319 ft | 198 kts | 226° |
| 2026-04-30 06:29 | 10.51545 | 124.22416 | 7183 ft | 198 kts | 226° |
| 2026-04-30 06:29 | 10.50643 | 124.21362 | 7048 ft | 198 kts | 226° |
| 2026-04-30 06:29 | 10.49742 | 124.20308 | 6917 ft | 197 kts | 226° |
| 2026-04-30 06:29 | 10.48843 | 124.19258 | 6789 ft | 196 kts | 226° |
| 2026-04-30 06:30 | 10.47947 | 124.18211 | 6642 ft | 196 kts | 226° |
| 2026-04-30 06:30 | 10.47053 | 124.17166 | 6467 ft | 196 kts | 226° |
| 2026-04-30 06:30 | 10.46159 | 124.16121 | 6331 ft | 195 kts | 226° |
| 2026-04-30 06:30 | 10.45274 | 124.15087 | 6116 ft | 194 kts | 226° |
| 2026-04-30 06:31 | 10.44385 | 124.14049 | 5890 ft | 195 kts | 226° |
| 2026-04-30 06:31 | 10.43496 | 124.13014 | 5684 ft | 193 kts | 226° |
| 2026-04-30 06:31 | 10.42616 | 124.11983 | 5452 ft | 193 kts | 227° |
| 2026-04-30 06:31 | 10.41736 | 124.10951 | 5227 ft | 192 kts | 226° |
| 2026-04-30 06:32 | 10.40874 | 124.09946 | 5035 ft | 190 kts | 226° |
| 2026-04-30 06:32 | 10.40004 | 124.08931 | 4824 ft | 191 kts | 227° |
| 2026-04-30 06:32 | 10.39133 | 124.07914 | 4628 ft | 189 kts | 226° |
| 2026-04-30 06:32 | 10.38273 | 124.06910 | 4428 ft | 188 kts | 226° |
| 2026-04-30 06:33 | 10.37413 | 124.05905 | 4214 ft | 190 kts | 227° |
| 2026-04-30 06:33 | 10.36561 | 124.04911 | 4152 ft | 183 kts | 227° |
| 2026-04-30 06:33 | 10.35722 | 124.03932 | 3948 ft | 187 kts | 227° |
| 2026-04-30 06:33 | 10.34858 | 124.02924 | 3952 ft | 190 kts | 227° |
| 2026-04-30 06:34 | 10.33973 | 124.01889 | 3947 ft | 199 kts | 228° |
| 2026-04-30 06:34 | 10.33054 | 124.00816 | 3949 ft | 202 kts | 227° |
| 2026-04-30 06:34 | 10.32140 | 123.99747 | 3945 ft | 196 kts | 228° |
| 2026-04-30 06:34 | 10.31263 | 123.98723 | 3943 ft | 190 kts | 226° |
| 2026-04-30 06:35 | 10.30270 | 123.97869 | 3874 ft | 187 kts | 208° |
| 2026-04-30 06:35 | 10.29073 | 123.97369 | 3827 ft | 182 kts | 189° |
| 2026-04-30 06:35 | 10.27846 | 123.97295 | 3855 ft | 172 kts | 168° |
| 2026-04-30 06:35 | 10.26745 | 123.97667 | 3880 ft | 161 kts | 145° |
| 2026-04-30 06:36 | 10.25877 | 123.98303 | 3899 ft | 157 kts | 133° |
| 2026-04-30 06:36 | 10.25232 | 123.99175 | 3930 ft | 152 kts | 112° |
| 2026-04-30 06:36 | 10.24955 | 124.00197 | 3926 ft | 149 kts | 91° |
| 2026-04-30 06:36 | 10.25080 | 124.01214 | 3960 ft | 146 kts | 71° |
| 2026-04-30 06:37 | 10.25587 | 124.02105 | 4002 ft | 146 kts | 49° |
| 2026-04-30 06:37 | 10.26439 | 124.02734 | 3750 ft | 165 kts | 27° |
| 2026-04-30 06:37 | 10.27473 | 124.03177 | 3778 ft | 160 kts | 26° |
| 2026-04-30 06:37 | 10.28498 | 124.03603 | 3822 ft | 158 kts | 27° |
| 2026-04-30 06:38 | 10.29493 | 124.04095 | 3866 ft | 156 kts | 32° |
| 2026-04-30 06:38 | 10.30423 | 124.04622 | 3922 ft | 153 kts | 31° |
| 2026-04-30 06:38 | 10.31371 | 124.05129 | 3905 ft | 154 kts | 31° |
| 2026-04-30 06:38 | 10.32309 | 124.05648 | 3917 ft | 152 kts | 32° |
| 2026-04-30 06:39 | 10.33237 | 124.06158 | 3948 ft | 151 kts | 30° |
| 2026-04-30 06:39 | 10.34174 | 124.06638 | 3940 ft | 152 kts | 30° |
| 2026-04-30 06:39 | 10.35197 | 124.06861 | 3945 ft | 157 kts | 355° |
| 2026-04-30 06:39 | 10.35869 | 124.06566 | 3945 ft | 163 kts | 325° |
| 2026-04-30 06:40 | 10.36438 | 124.05579 | 4000 ft | 166 kts | 288° |
| 2026-04-30 06:40 | 10.36632 | 124.04430 | 4063 ft | 166 kts | 278° |
| 2026-04-30 06:40 | 10.36663 | 124.03228 | 4040 ft | 171 kts | 268° |
| 2026-04-30 06:40 | 10.36487 | 124.02031 | 4067 ft | 173 kts | 252° |
| 2026-04-30 06:41 | 10.35840 | 124.01029 | 4078 ft | 173 kts | 214° |
| 2026-04-30 06:41 | 10.34446 | 124.00246 | 4148 ft | 172 kts | 202° |
| 2026-04-30 06:41 | 10.33732 | 123.99887 | 4188 ft | 173 kts | 202° |
| 2026-04-30 06:41 | 10.32640 | 123.99357 | 4133 ft | 178 kts | 202° |
| 2026-04-30 06:42 | 10.31500 | 123.98803 | 4071 ft | 181 kts | 203° |
| 2026-04-30 06:42 | 10.30350 | 123.98289 | 4059 ft | 179 kts | 193° |
| 2026-04-30 06:42 | 10.29139 | 123.98152 | 4070 ft | 173 kts | 168° |
| 2026-04-30 06:42 | 10.28049 | 123.98576 | 4079 ft | 166 kts | 141° |
| 2026-04-30 06:43 | 10.27277 | 123.99435 | 3982 ft | 165 kts | 116° |
| 2026-04-30 06:43 | 10.26957 | 124.00533 | 3993 ft | 160 kts | 92° |
| 2026-04-30 06:43 | 10.27158 | 124.01630 | 3939 ft | 162 kts | 64° |
| 2026-04-30 06:43 | 10.27897 | 124.02462 | 3868 ft | 163 kts | 35° |
| 2026-04-30 06:44 | 10.28914 | 124.02982 | 3875 ft | 160 kts | 29° |
| 2026-04-30 06:44 | 10.29903 | 124.03489 | 3827 ft | 162 kts | 31° |
| 2026-04-30 06:44 | 10.30858 | 124.04026 | 3935 ft | 153 kts | 32° |
| 2026-04-30 06:44 | 10.31789 | 124.04545 | 3928 ft | 154 kts | 31° |
| 2026-04-30 06:45 | 10.32758 | 124.05030 | 3919 ft | 155 kts | 29° |
| 2026-04-30 06:45 | 10.33757 | 124.05446 | 3915 ft | 157 kts | 14° |
| 2026-04-30 06:45 | 10.34836 | 124.05353 | 3970 ft | 160 kts | 344° |
| 2026-04-30 06:45 | 10.35776 | 124.04692 | 3926 ft | 170 kts | 314° |
| 2026-04-30 06:46 | 10.36310 | 124.03609 | 3909 ft | 176 kts | 284° |
| 2026-04-30 06:46 | 10.36298 | 124.02372 | 3922 ft | 176 kts | 257° |
| 2026-04-30 06:46 | 10.35768 | 124.01287 | 3998 ft | 171 kts | 228° |
| 2026-04-30 06:46 | 10.34801 | 124.00557 | 3939 ft | 176 kts | 209° |
| 2026-04-30 06:47 | 10.33782 | 123.99879 | 3945 ft | 177 kts | 211° |
| 2026-04-30 06:47 | 10.32760 | 123.99192 | 4022 ft | 173 kts | 210° |
| 2026-04-30 06:47 | 10.31722 | 123.98567 | 3924 ft | 177 kts | 206° |
| 2026-04-30 06:47 | 10.30641 | 123.97984 | 3943 ft | 173 kts | 204° |
| 2026-04-30 06:48 | 10.29574 | 123.97421 | 3888 ft | 175 kts | 206° |
| 2026-04-30 06:48 | 10.28516 | 123.96757 | 3785 ft | 180 kts | 212° |
| 2026-04-30 06:48 | 10.27559 | 123.95982 | 3817 ft | 173 kts | 217° |
| 2026-04-30 06:48 | 10.26613 | 123.95200 | 3653 ft | 178 kts | 217° |
| 2026-04-30 06:49 | 10.25655 | 123.94368 | 3505 ft | 181 kts | 220° |
| 2026-04-30 06:49 | 10.24738 | 123.93523 | 3516 ft | 175 kts | 219° |
| 2026-04-30 06:49 | 10.23780 | 123.92759 | 3393 ft | 176 kts | 213° |
| 2026-04-30 06:49 | 10.22781 | 123.92030 | 3229 ft | 177 kts | 213° |
| 2026-04-30 06:50 | 10.21792 | 123.91303 | 3113 ft | 174 kts | 214° |
| 2026-04-30 06:50 | 10.20819 | 123.90581 | 2950 ft | 177 kts | 214° |
| 2026-04-30 06:50 | 10.19853 | 123.89828 | 2919 ft | 174 kts | 216° |
| 2026-04-30 06:50 | 10.18891 | 123.89067 | 2858 ft | 177 kts | 215° |
| 2026-04-30 06:51 | 10.17908 | 123.88315 | 2839 ft | 177 kts | 215° |
| 2026-04-30 06:51 | 10.16950 | 123.87572 | 2887 ft | 172 kts | 216° |
| 2026-04-30 06:51 | 10.15995 | 123.86824 | 2891 ft | 173 kts | 216° |
| 2026-04-30 06:51 | 10.15050 | 123.86070 | 2880 ft | 173 kts | 216° |
| 2026-04-30 06:52 | 10.14345 | 123.85098 | 2901 ft | 172 kts | 251° |
| 2026-04-30 06:52 | 10.14163 | 123.83901 | 2840 ft | 172 kts | 274° |
| 2026-04-30 06:52 | 10.14426 | 123.82738 | 2851 ft | 168 kts | 297° |
| 2026-04-30 06:52 | 10.15078 | 123.81793 | 2827 ft | 160 kts | 329° |
| 2026-04-30 06:53 | 10.16101 | 123.81587 | 2735 ft | 151 kts | 18° |
| 2026-04-30 06:53 | 10.16908 | 123.82203 | 2648 ft | 147 kts | 53° |
| 2026-04-30 06:53 | 10.17518 | 123.83027 | 2518 ft | 147 kts | 52° |
| 2026-04-30 06:53 | 10.18061 | 123.83899 | 2419 ft | 146 kts | 64° |
| 2026-04-30 06:54 | 10.18453 | 123.84853 | 2294 ft | 146 kts | 66° |
| 2026-04-30 06:54 | 10.18867 | 123.85795 | 2219 ft | 144 kts | 60° |
| 2026-04-30 06:54 | 10.19414 | 123.86639 | 2148 ft | 144 kts | 51° |
| 2026-04-30 06:54 | 10.20103 | 123.87385 | 2032 ft | 144 kts | 44° |
| 2026-04-30 06:55 | 10.20790 | 123.88083 | 1986 ft | 137 kts | 45° |
| 2026-04-30 06:55 | 10.21465 | 123.88767 | 1863 ft | 136 kts | 44° |
| 2026-04-30 06:55 | 10.22148 | 123.89436 | 1755 ft | 138 kts | 44° |
| 2026-04-30 06:55 | 10.22835 | 123.90102 | 1656 ft | 134 kts | 44° |
| 2026-04-30 06:56 | 10.23495 | 123.90760 | 1586 ft | 134 kts | 45° |
| 2026-04-30 06:56 | 10.24150 | 123.91430 | 1488 ft | 131 kts | 45° |
| 2026-04-30 06:56 | 10.24817 | 123.92055 | 1434 ft | 131 kts | 44° |
| 2026-04-30 06:56 | 10.25493 | 123.92689 | 1330 ft | 134 kts | 45° |
| 2026-04-30 06:57 | 10.26144 | 123.93335 | 1267 ft | 121 kts | 45° |
| 2026-04-30 06:57 | 10.26738 | 123.93918 | 1116 ft | 118 kts | 46° |
| 2026-04-30 06:57 | 10.27333 | 123.94484 | 898 ft | 118 kts | 44° |
| 2026-04-30 06:57 | 10.27904 | 123.95061 | 702 ft | 110 kts | 46° |
| 2026-04-30 06:58 | 10.28426 | 123.95592 | 519 ft | 102 kts | 44° |
| 2026-04-30 06:58 | 10.28920 | 123.96102 | 346 ft | 102 kts | 44° |
| 2026-04-30 06:58 | 10.29426 | 123.96605 | 175 ft | 102 kts | 46° |
| 2026-04-30 06:58 | 10.29922 | 123.97104 | 36 ft | 94 kts | 44° |
| 2026-04-30 06:59 | 10.30299 | 123.97478 | 31 ft | 61 kts | 45° |
| 2026-04-30 06:59 | 10.30553 | 123.97746 | 30 ft | 46 kts | 44° |
| 2026-04-30 06:59 | 10.30680 | 123.97907 | 29 ft | 17 kts | 114° |
| 2026-04-30 06:59 | 10.30597 | 123.97996 | 31 ft | 19 kts | 131° |
| 2026-04-30 07:00 | 10.30527 | 123.97977 | 32 ft | 15 kts | 224° |
| 2026-04-30 07:00 | 10.30441 | 123.97893 | 32 ft | 20 kts | 223° |
| 2026-04-30 07:00 | 10.30331 | 123.97781 | 32 ft | 25 kts | 225° |
| 2026-04-30 07:00 | 10.30229 | 123.97679 | 32 ft | 9 kts | 224° |
| 2026-04-30 07:01 | 10.30169 | 123.97664 | 32 ft | 12 kts | 195° |
| 2026-04-30 07:01 | 10.30120 | 123.97630 | 32 ft | 2 kts | 250° |
| 2026-04-30 07:01 | 10.30124 | 123.97619 | 32 ft | 0 kts | 302° |